Time;durP1;ratioP1;P1;durP2;ratioP2;P2;SDS_P1;SDS_P2;PMS_P1;PMS_P2;Temp;Humidity;BMP_temperature;BMP_pressure;BME280_temperature;BME280_humidity;BME280_pressure;Samples;Min_cycle;Max_cycle;Signal;HPM_P1;HPM_P2
2022/03/11 00:00:10;;;;;;;13.87;8.50;;;2.70;45.20;;;;;;5116875;28;20463;-70
2022/03/11 00:02:36;;;;;;;15.50;9.23;;;2.70;45.10;;;;;;5116792;28;20463;-71
2022/03/11 00:05:04;;;;;;;14.90;8.00;;;2.70;45.00;;;;;;5116808;28;20444;-70
2022/03/11 00:07:31;;;;;;;15.03;8.20;;;2.60;45.10;;;;;;5116960;28;20452;-70
2022/03/11 00:09:58;;;;;;;11.47;7.50;;;2.60;45.30;;;;;;5116435;28;20867;-70
2022/03/11 00:12:25;;;;;;;13.93;9.00;;;2.60;45.40;;;;;;5116695;28;20452;-70
2022/03/11 00:14:52;;;;;;;11.70;8.37;;;2.50;45.60;;;;;;5116629;28;20968;-70
2022/03/11 00:17:20;;;;;;;12.70;8.33;;;2.50;45.70;;;;;;5117184;28;20521;-71
2022/03/11 00:19:47;;;;;;;14.80;8.20;;;2.60;45.70;;;;;;5119713;28;20525;-72
2022/03/11 00:22:14;;;;;;;14.20;8.30;;;2.60;45.70;;;;;;5119507;28;20452;-71
2022/03/11 00:24:41;;;;;;;10.57;7.60;;;2.50;45.90;;;;;;5118396;28;20453;-70
2022/03/11 00:27:08;;;;;;;16.17;8.03;;;2.50;46.10;;;;;;5116316;28;20488;-69
2022/03/11 00:29:35;;;;;;;13.27;8.67;;;2.50;46.00;;;;;;5116191;28;20926;-70
2022/03/11 00:32:02;;;;;;;13.30;8.57;;;2.50;46.00;;;;;;5116369;28;20460;-70
2022/03/11 00:34:30;;;;;;;12.17;8.10;;;2.50;46.20;;;;;;5115775;28;20472;-70
2022/03/11 00:36:58;;;;;;;14.93;8.73;;;2.50;46.20;;;;;;5116126;28;20472;-70
2022/03/11 00:39:24;;;;;;;14.87;9.00;;;2.40;45.90;;;;;;5116635;28;20738;-70
2022/03/11 00:41:51;;;;;;;12.33;8.40;;;2.50;46.30;;;;;;5116002;28;20467;-70
2022/03/11 00:44:18;;;;;;;14.07;8.00;;;2.40;46.20;;;;;;5115925;28;20449;-70
2022/03/11 00:46:45;;;;;;;12.73;8.30;;;2.40;46.20;;;;;;5115871;28;20453;-70
2022/03/11 00:49:11;;;;;;;12.63;8.20;;;2.40;46.20;;;;;;5116030;28;20456;-70
2022/03/11 00:51:40;;;;;;;12.40;8.57;;;2.40;46.30;;;;;;5115653;28;20485;-70
2022/03/11 00:54:07;;;;;;;10.80;7.87;;;2.30;46.00;;;;;;5115737;28;20764;-70
2022/03/11 00:56:34;;;;;;;13.60;8.23;;;2.40;45.90;;;;;;5115833;28;20453;-69
2022/03/11 00:59:01;;;;;;;14.17;8.83;;;2.30;45.90;;;;;;5115835;28;20547;-69
2022/03/11 01:01:27;;;;;;;11.17;7.57;;;2.30;46.00;;;;;;5115727;28;20789;-68
2022/03/11 01:03:54;;;;;;;16.33;9.53;;;2.20;46.10;;;;;;5115532;28;20452;-68
2022/03/11 01:06:21;;;;;;;15.63;8.43;;;2.20;46.60;;;;;;5115439;28;20467;-69
2022/03/11 01:08:49;;;;;;;15.20;8.63;;;2.10;46.70;;;;;;5115225;28;20460;-68
2022/03/11 01:11:15;;;;;;;18.87;10.90;;;2.20;46.80;;;;;;5115570;28;20460;-69
2022/03/11 01:13:42;;;;;;;13.60;8.60;;;2.10;47.00;;;;;;5115024;28;20929;-68
2022/03/11 01:16:09;;;;;;;13.63;8.50;;;2.10;47.00;;;;;;5115061;28;20495;-69
2022/03/11 01:18:37;;;;;;;13.87;8.67;;;2.10;47.00;;;;;;5115525;28;20903;-69
2022/03/11 01:21:04;;;;;;;15.57;8.17;;;2.10;46.80;;;;;;5115260;28;20790;-69
2022/03/11 01:23:31;;;;;;;12.83;8.40;;;2.20;46.70;;;;;;5115148;28;20456;-68
2022/03/11 01:25:59;;;;;;;12.50;7.60;;;2.20;46.70;;;;;;5114930;28;20448;-68
2022/03/11 01:28:26;;;;;;;14.70;8.43;;;2.20;46.70;;;;;;5114587;28;20461;-68
2022/03/11 01:30:53;;;;;;;12.77;8.03;;;2.10;46.60;;;;;;5114739;28;20460;-69
2022/03/11 01:33:19;;;;;;;13.73;8.20;;;2.10;46.60;;;;;;5115222;28;20763;-69
2022/03/11 01:35:46;;;;;;;15.83;8.70;;;2.10;46.70;;;;;;5115120;28;20813;-69
2022/03/11 01:38:13;;;;;;;13.30;7.77;;;2.10;46.80;;;;;;5115033;28;20510;-69
2022/03/11 01:40:40;;;;;;;17.43;9.53;;;2.10;46.50;;;;;;5115059;28;20787;-69
2022/03/11 01:43:15;;;;;;;12.13;8.60;;;2.00;46.80;;;;;;5114883;28;20459;-69
2022/03/11 01:45:42;;;;;;;16.40;9.20;;;2.00;46.90;;;;;;5115629;28;20902;-69
2022/03/11 01:48:10;;;;;;;14.30;9.03;;;2.00;47.00;;;;;;5114784;28;20456;-68
2022/03/11 01:50:38;;;;;;;16.27;9.17;;;2.00;47.10;;;;;;5114693;28;20459;-68
2022/03/11 01:53:05;;;;;;;10.63;8.20;;;1.90;47.10;;;;;;5114465;28;20480;-69
2022/03/11 01:55:32;;;;;;;14.53;8.27;;;1.90;47.10;;;;;;5115020;28;21004;-69
2022/03/11 01:58:00;;;;;;;12.57;8.77;;;1.80;47.20;;;;;;5114811;28;20649;-68
2022/03/11 02:00:28;;;;;;;12.87;8.67;;;1.80;47.30;;;;;;5114858;28;20467;-69
2022/03/11 02:02:55;;;;;;;15.37;9.77;;;1.80;47.40;;;;;;5114659;28;20460;-69
2022/03/11 02:05:21;;;;;;;12.43;8.17;;;1.80;47.40;;;;;;5114598;28;20460;-68
2022/03/11 02:07:50;;;;;;;14.10;8.53;;;1.70;47.30;;;;;;5115589;28;20467;-69
2022/03/11 02:10:18;;;;;;;13.53;9.30;;;1.70;47.70;;;;;;5114417;28;20492;-69
2022/03/11 02:12:45;;;;;;;14.93;8.97;;;1.70;47.90;;;;;;5114701;28;20453;-68
2022/03/11 02:15:12;;;;;;;15.50;9.03;;;1.70;47.90;;;;;;5114288;28;20570;-68
2022/03/11 02:17:40;;;;;;;11.40;8.17;;;1.60;47.80;;;;;;5114197;28;20456;-69
2022/03/11 02:20:07;;;;;;;20.53;9.67;;;1.60;48.60;;;;;;5114675;28;20467;-71
2022/03/11 02:22:37;;;;;;;12.63;8.80;;;1.60;48.20;;;;;;5114840;28;20456;-69
2022/03/11 02:25:07;;;;;;;21.40;9.87;;;1.60;48.10;;;;;;5114776;28;20786;-70
2022/03/11 02:27:39;;;;;;;16.40;9.83;;;1.60;48.30;;;;;;5114638;28;20444;-70
2022/03/11 02:30:13;;;;;;;16.77;9.93;;;1.60;48.30;;;;;;5115168;28;20890;-70
2022/03/11 02:32:40;;;;;;;17.60;9.83;;;1.60;48.40;;;;;;5114346;28;20472;-70
2022/03/11 02:35:08;;;;;;;19.67;9.27;;;1.60;48.40;;;;;;5114399;28;20480;-70
2022/03/11 02:37:34;;;;;;;17.33;9.47;;;1.50;48.60;;;;;;5114764;28;20452;-69
2022/03/11 02:40:02;;;;;;;14.50;9.10;;;1.50;49.00;;;;;;5117125;28;20938;-69
2022/03/11 02:42:30;;;;;;;12.93;9.10;;;1.50;49.00;;;;;;5118421;28;20452;-68
2022/03/11 02:44:59;;;;;;;15.30;9.23;;;1.40;49.10;;;;;;5118544;28;20459;-68
2022/03/11 02:47:26;;;;;;;18.20;9.97;;;1.40;49.20;;;;;;5118263;28;20448;-68
2022/03/11 02:49:52;;;;;;;15.23;9.30;;;1.40;49.20;;;;;;5117867;28;20460;-69
2022/03/11 02:52:19;;;;;;;15.23;9.77;;;1.40;49.40;;;;;;5117911;28;20480;-69
2022/03/11 02:54:46;;;;;;;16.40;9.23;;;1.40;49.60;;;;;;5118840;28;20466;-68
2022/03/11 02:57:12;;;;;;;12.90;9.00;;;1.40;49.70;;;;;;5117931;28;20493;-68
2022/03/11 02:59:41;;;;;;;15.33;9.37;;;1.40;49.70;;;;;;5118002;28;20456;-68
2022/03/11 03:02:07;;;;;;;11.87;8.87;;;1.40;49.90;;;;;;5117897;28;20542;-69
2022/03/11 03:04:34;;;;;;;16.93;10.07;;;1.40;50.10;;;;;;5117976;28;20467;-68
2022/03/11 03:07:01;;;;;;;15.17;9.23;;;1.40;50.60;;;;;;5117338;28;20456;-69
2022/03/11 03:09:27;;;;;;;11.47;8.80;;;1.30;50.60;;;;;;5118570;28;20483;-68
2022/03/11 03:11:56;;;;;;;13.00;9.10;;;1.30;51.00;;;;;;5117863;28;20459;-67
2022/03/11 03:14:23;;;;;;;19.47;10.03;;;1.30;51.10;;;;;;5117727;28;20464;-68
2022/03/11 03:16:51;;;;;;;13.90;8.63;;;1.30;51.50;;;;;;5118332;28;20487;-69
2022/03/11 03:19:17;;;;;;;15.30;9.13;;;1.30;51.50;;;;;;5118264;28;20824;-68
2022/03/11 03:21:44;;;;;;;18.03;9.80;;;1.30;51.50;;;;;;5117974;28;20467;-69
2022/03/11 03:24:11;;;;;;;13.90;9.30;;;1.20;51.90;;;;;;5118476;28;20452;-69
2022/03/11 03:26:38;;;;;;;16.17;8.57;;;1.20;52.00;;;;;;5117959;28;20452;-68
2022/03/11 03:29:04;;;;;;;16.57;9.67;;;1.20;52.10;;;;;;5117419;28;20472;-68
2022/03/11 03:31:31;;;;;;;16.20;9.27;;;1.10;52.20;;;;;;5117416;28;20461;-69
2022/03/11 03:34:00;;;;;;;13.20;9.77;;;1.10;52.50;;;;;;5117227;28;20452;-69
2022/03/11 03:36:27;;;;;;;17.40;9.70;;;1.10;52.70;;;;;;5117021;28;20472;-69
2022/03/11 03:38:54;;;;;;;15.67;8.87;;;1.10;52.90;;;;;;5116991;28;20463;-69
2022/03/11 03:41:20;;;;;;;15.07;9.47;;;1.00;52.90;;;;;;5117416;28;20739;-70
2022/03/11 03:43:47;;;;;;;16.33;9.20;;;1.00;53.40;;;;;;5116980;28;20463;-69
2022/03/11 03:46:14;;;;;;;18.70;10.10;;;1.00;53.80;;;;;;5117310;28;20459;-70
2022/03/11 03:48:41;;;;;;;15.33;10.53;;;0.90;53.90;;;;;;5116886;28;20461;-71
2022/03/11 03:51:09;;;;;;;11.87;8.03;;;0.90;54.10;;;;;;5116600;28;20480;-70
2022/03/11 03:53:36;;;;;;;16.00;9.20;;;0.80;54.20;;;;;;5117214;28;20451;-71
2022/03/11 03:56:02;;;;;;;16.37;8.30;;;0.90;54.70;;;;;;5116685;28;20491;-70
2022/03/11 03:58:29;;;;;;;15.07;9.67;;;0.90;55.00;;;;;;5117015;28;20463;-69
2022/03/11 04:00:56;;;;;;;12.13;8.43;;;0.80;54.90;;;;;;5117161;28;20461;-69
2022/03/11 04:03:23;;;;;;;13.67;9.33;;;0.80;55.10;;;;;;5116790;28;20456;-70
2022/03/11 04:05:50;;;;;;;16.03;9.70;;;0.80;55.20;;;;;;5117538;28;20459;-70
2022/03/11 04:08:18;;;;;;;12.73;8.90;;;0.80;55.60;;;;;;5117527;28;20464;-71
2022/03/11 04:10:45;;;;;;;15.57;10.83;;;0.80;55.60;;;;;;5116749;28;20755;-70
2022/03/11 04:13:13;;;;;;;17.80;9.77;;;0.80;55.90;;;;;;5117346;28;20464;-70
2022/03/11 04:15:40;;;;;;;18.30;9.47;;;0.70;56.10;;;;;;5117499;28;20476;-70
2022/03/11 04:18:07;;;;;;;13.10;9.17;;;0.70;56.20;;;;;;5118367;28;20738;-69
2022/03/11 04:20:34;;;;;;;14.17;8.73;;;0.70;56.50;;;;;;5118697;28;20521;-69
2022/03/11 04:23:00;;;;;;;14.80;8.90;;;0.60;56.40;;;;;;5119675;28;20993;-68
2022/03/11 04:25:29;;;;;;;14.27;9.07;;;0.60;56.60;;;;;;5116781;28;20459;-68
2022/03/11 04:27:55;;;;;;;19.07;10.90;;;0.60;57.10;;;;;;5116693;28;20817;-67
2022/03/11 04:30:22;;;;;;;16.20;9.97;;;0.60;57.60;;;;;;5116255;28;20473;-68
2022/03/11 04:32:49;;;;;;;15.10;9.40;;;0.60;57.20;;;;;;5116541;28;20452;-68
2022/03/11 04:35:15;;;;;;;14.90;9.53;;;0.60;57.10;;;;;;5116279;28;20452;-68
2022/03/11 04:37:42;;;;;;;15.57;9.27;;;0.50;57.40;;;;;;5116682;28;20771;-68
2022/03/11 04:40:10;;;;;;;13.47;8.70;;;0.50;57.90;;;;;;5116334;28;20547;-68
2022/03/11 04:42:39;;;;;;;17.87;9.80;;;0.50;58.50;;;;;;5098724;28;20561;-68
2022/03/11 04:45:07;;;;;;;13.47;8.60;;;0.50;58.60;;;;;;5115934;28;20453;-69
2022/03/11 04:47:34;;;;;;;14.03;8.70;;;0.40;58.60;;;;;;5116183;28;20452;-68
2022/03/11 04:50:01;;;;;;;15.70;9.23;;;0.40;58.80;;;;;;5116155;28;20456;-69
2022/03/11 04:52:27;;;;;;;18.60;10.20;;;0.40;58.90;;;;;;5115284;28;20484;-68
2022/03/11 04:54:54;;;;;;;15.70;9.90;;;0.40;59.10;;;;;;5115817;28;20460;-69
2022/03/11 04:57:21;;;;;;;15.13;9.57;;;0.40;59.40;;;;;;5115831;28;20484;-69
2022/03/11 04:59:49;;;;;;;14.23;9.27;;;0.40;59.40;;;;;;5115570;28;20782;-69
2022/03/11 05:02:24;;;;;;;21.00;9.77;;;0.40;59.20;;;;;;5114405;28;20457;-68
2022/03/11 05:04:51;;;;;;;13.50;9.57;;;0.40;59.30;;;;;;5116291;28;20440;-69
2022/03/11 05:07:18;;;;;;;16.83;10.23;;;0.40;59.60;;;;;;5115692;28;20457;-68
2022/03/11 05:09:45;;;;;;;15.00;9.27;;;0.40;59.70;;;;;;5115599;28;20456;-68
2022/03/11 05:12:11;;;;;;;20.70;10.33;;;0.40;59.50;;;;;;5116925;28;20452;-69
2022/03/11 05:14:38;;;;;;;13.13;8.80;;;0.40;60.00;;;;;;5118771;28;20457;-69
2022/03/11 05:17:06;;;;;;;15.00;9.47;;;0.30;60.00;;;;;;5118179;28;20507;-68
2022/03/11 05:19:33;;;;;;;17.90;10.00;;;0.30;60.60;;;;;;5115790;28;20460;-69
2022/03/11 05:22:00;;;;;;;13.70;8.83;;;0.30;60.60;;;;;;5115341;28;20452;-69
2022/03/11 05:24:26;;;;;;;13.70;9.90;;;0.30;61.50;;;;;;5117994;28;20452;-70
2022/03/11 05:26:53;;;;;;;21.10;11.50;;;0.30;61.30;;;;;;5115247;28;20448;-70
2022/03/11 05:29:22;;;;;;;17.53;9.73;;;0.20;61.20;;;;;;5115111;28;20926;-70
2022/03/11 05:31:49;;;;;;;16.33;9.37;;;0.20;61.50;;;;;;5115258;28;20456;-70
2022/03/11 05:34:17;;;;;;;14.57;9.03;;;0.20;61.80;;;;;;5115188;28;20452;-70
2022/03/11 05:36:46;;;;;;;17.00;9.60;;;0.20;61.90;;;;;;5115040;28;20472;-70
2022/03/11 05:39:13;;;;;;;16.60;9.30;;;0.20;62.10;;;;;;5115345;28;20460;-70
2022/03/11 05:41:40;;;;;;;17.30;10.97;;;0.20;62.00;;;;;;5114718;28;20460;-70
2022/03/11 05:44:07;;;;;;;18.93;10.87;;;0.20;62.10;;;;;;5115236;28;20467;-70
2022/03/11 05:46:34;;;;;;;15.30;9.70;;;0.20;62.40;;;;;;5115070;28;20456;-70
2022/03/11 05:49:00;;;;;;;16.00;10.83;;;0.20;62.40;;;;;;5114734;28;20452;-70
2022/03/11 05:51:29;;;;;;;16.23;10.07;;;0.20;62.90;;;;;;5114603;28;20511;-71
2022/03/11 05:53:55;;;;;;;17.33;10.07;;;0.10;63.20;;;;;;5114672;28;20492;-71
2022/03/11 05:56:22;;;;;;;16.47;10.30;;;0.10;63.60;;;;;;5114789;28;20938;-70
2022/03/11 05:58:50;;;;;;;18.87;9.87;;;0.10;63.50;;;;;;5114826;28;20456;-70
2022/03/11 06:01:16;;;;;;;15.10;9.70;;;0.20;63.50;;;;;;5115032;28;20531;-70
2022/03/11 06:03:45;;;;;;;15.90;11.43;;;0.20;63.70;;;;;;5115032;28;20475;-70
2022/03/11 06:06:12;;;;;;;16.43;10.27;;;0.20;63.20;;;;;;5114742;28;20814;-70
2022/03/11 06:08:41;;;;;;;17.83;9.90;;;0.20;63.60;;;;;;5114825;28;20457;-71
2022/03/11 06:11:08;;;;;;;16.97;10.10;;;0.20;63.70;;;;;;5114707;28;20449;-70
2022/03/11 06:13:35;;;;;;;22.50;11.60;;;0.30;63.00;;;;;;5115405;28;20790;-70
2022/03/11 06:16:02;;;;;;;15.43;9.70;;;0.30;63.10;;;;;;5118981;28;20507;-71
2022/03/11 06:18:28;;;;;;;14.80;10.93;;;0.30;63.40;;;;;;5118802;28;20937;-70
2022/03/11 06:20:56;;;;;;;15.63;9.60;;;0.30;63.50;;;;;;5118718;28;20462;-70
2022/03/11 06:23:23;;;;;;;20.33;10.87;;;0.40;63.00;;;;;;5118927;28;20784;-70
2022/03/11 06:25:51;;;;;;;17.07;10.50;;;0.40;62.90;;;;;;5118760;28;20456;-70
2022/03/11 06:28:18;;;;;;;19.33;10.73;;;0.40;62.30;;;;;;5118874;28;20452;-70
2022/03/11 06:30:47;;;;;;;16.27;9.77;;;0.40;62.10;;;;;;5118885;28;20463;-70
2022/03/11 06:33:15;;;;;;;16.20;10.27;;;0.40;62.80;;;;;;5118707;28;20582;-69
2022/03/11 06:35:41;;;;;;;21.37;12.07;;;0.40;62.70;;;;;;5118852;28;20467;-70
2022/03/11 06:38:09;;;;;;;17.93;11.30;;;0.40;62.60;;;;;;5118403;28;20464;-70
2022/03/11 06:40:35;;;;;;;17.80;10.50;;;0.50;62.30;;;;;;5118397;28;20463;-70
2022/03/11 06:43:03;;;;;;;21.73;11.07;;;0.50;61.80;;;;;;5119003;28;20456;-70
2022/03/11 06:45:30;;;;;;;19.60;11.30;;;0.50;61.90;;;;;;5118286;28;20784;-70
2022/03/11 06:47:57;;;;;;;17.00;10.30;;;0.50;62.60;;;;;;5118436;28;20798;-71
2022/03/11 06:50:24;;;;;;;15.87;10.57;;;0.50;62.50;;;;;;5118244;28;20560;-69
2022/03/11 06:52:50;;;;;;;23.33;10.57;;;0.60;62.20;;;;;;5118120;28;20484;-70
2022/03/11 06:55:17;;;;;;;30.13;16.73;;;0.60;62.70;;;;;;5118384;28;20475;-70
2022/03/11 06:57:45;;;;;;;17.00;11.60;;;0.70;64.30;;;;;;5118143;28;20486;-70
2022/03/11 07:00:14;;;;;;;16.07;10.37;;;0.90;63.40;;;;;;5117631;28;21016;-70
2022/03/11 07:02:41;;;;;;;28.80;15.50;;;0.90;60.90;;;;;;5118130;28;20937;-70
2022/03/11 07:05:09;;;;;;;19.73;11.57;;;0.90;60.40;;;;;;5117625;28;20467;-70
2022/03/11 07:07:36;;;;;;;27.73;11.50;;;0.90;59.90;;;;;;5118050;28;20452;-70
2022/03/11 07:10:05;;;;;;;19.27;10.73;;;0.90;59.40;;;;;;5118627;28;20467;-70
2022/03/11 07:12:33;;;;;;;22.50;9.87;;;1.00;59.20;;;;;;5118749;28;20456;-70
2022/03/11 07:15:00;;;;;;;15.50;9.57;;;1.00;58.80;;;;;;5119287;28;20462;-71
2022/03/11 07:17:29;;;;;;;14.73;10.70;;;1.00;58.40;;;;;;5118013;28;20487;-71
2022/03/11 07:19:55;;;;;;;15.67;10.37;;;1.10;58.60;;;;;;5117630;28;20463;-70
2022/03/11 07:22:23;;;;;;;18.40;10.90;;;1.10;57.80;;;;;;5117555;28;20783;-70
2022/03/11 07:24:49;;;;;;;19.07;11.13;;;1.10;57.50;;;;;;5116927;28;20477;-69
2022/03/11 07:27:16;;;;;;;29.30;14.97;;;1.20;57.60;;;;;;5116949;28;20449;-69
2022/03/11 07:29:43;;;;;;;30.03;14.70;;;1.20;57.50;;;;;;5117763;28;20467;-69
2022/03/11 07:32:12;;;;;;;17.43;10.60;;;1.20;57.40;;;;;;5117196;28;20791;-70
2022/03/11 07:34:40;;;;;;;19.60;11.67;;;1.30;57.00;;;;;;5117568;28;20448;-69
2022/03/11 07:37:11;;;;;;;16.93;10.33;;;1.30;57.10;;;;;;5116980;28;20580;-68
2022/03/11 07:39:38;;;;;;;18.63;10.43;;;1.40;56.90;;;;;;5117081;28;20806;-69
2022/03/11 07:42:09;;;;;;;18.57;10.40;;;1.40;56.70;;;;;;5116909;28;20558;-70
2022/03/11 07:44:36;;;;;;;15.80;10.80;;;1.50;56.30;;;;;;5116993;28;20456;-70
2022/03/11 07:47:03;;;;;;;17.83;10.60;;;1.50;56.50;;;;;;5116859;28;20459;-71
2022/03/11 07:49:29;;;;;;;16.53;11.10;;;1.60;56.30;;;;;;5116726;28;20453;-71
2022/03/11 07:51:58;;;;;;;16.57;10.10;;;1.70;55.20;;;;;;5117072;28;20481;-70
2022/03/11 07:54:24;;;;;;;17.13;10.67;;;1.70;54.80;;;;;;5117701;28;20878;-69
2022/03/11 07:56:54;;;;;;;14.93;9.60;;;1.70;54.50;;;;;;5118534;28;20472;-70
2022/03/11 07:59:21;;;;;;;15.73;10.53;;;1.80;54.00;;;;;;5116680;28;20463;-71
2022/03/11 08:01:48;;;;;;;15.93;9.93;;;1.80;53.90;;;;;;5116652;28;20452;-72
2022/03/11 08:04:16;;;;;;;21.07;12.00;;;1.80;53.90;;;;;;5117030;28;20463;-71
2022/03/11 08:06:48;;;;;;;19.40;11.40;;;1.90;54.70;;;;;;5117344;28;20456;-70
2022/03/11 08:09:22;;;;;;;18.03;10.23;;;1.90;55.00;;;;;;5117586;28;20949;-69
2022/03/11 08:11:49;;;;;;;19.27;10.77;;;2.10;53.80;;;;;;5116516;28;20531;-68
2022/03/11 08:14:16;;;;;;;18.23;9.80;;;2.10;52.90;;;;;;5116565;28;20456;-70
2022/03/11 08:16:43;;;;;;;16.97;10.53;;;2.20;52.60;;;;;;5117136;28;20928;-69
2022/03/11 08:19:10;;;;;;;17.33;10.93;;;2.20;52.40;;;;;;5116306;28;20452;-69
2022/03/11 08:21:37;;;;;;;17.77;11.03;;;2.30;52.10;;;;;;5116450;28;20533;-68
2022/03/11 08:24:04;;;;;;;15.80;11.13;;;2.30;52.00;;;;;;5116077;28;20771;-69
2022/03/11 08:26:32;;;;;;;17.80;9.50;;;2.40;52.10;;;;;;5116795;28;20520;-68
2022/03/11 08:28:59;;;;;;;19.73;11.53;;;2.40;51.20;;;;;;5116382;28;20456;-69
2022/03/11 08:31:26;;;;;;;19.53;11.20;;;2.40;50.90;;;;;;5115902;28;20453;-69
2022/03/11 08:33:52;;;;;;;15.50;10.73;;;2.50;51.20;;;;;;5116367;28;20472;-69
2022/03/11 08:36:19;;;;;;;16.60;10.70;;;2.60;50.50;;;;;;5115783;28;20456;-69
2022/03/11 08:38:46;;;;;;;15.47;10.20;;;2.70;49.90;;;;;;5115838;28;20731;-69
2022/03/11 08:41:13;;;;;;;16.30;9.80;;;2.70;49.40;;;;;;5115763;28;20772;-69
2022/03/11 08:43:41;;;;;;;15.43;9.67;;;2.80;49.10;;;;;;5115788;28;20467;-69
2022/03/11 08:46:09;;;;;;;14.90;9.70;;;2.90;48.60;;;;;;5115559;28;20453;-69
2022/03/11 08:48:36;;;;;;;15.80;9.33;;;3.00;47.50;;;;;;5116089;28;20768;-69
2022/03/11 08:51:04;;;;;;;14.47;9.90;;;3.00;47.60;;;;;;5116076;28;20973;-69
2022/03/11 08:53:31;;;;;;;16.23;10.37;;;3.10;47.50;;;;;;5117648;28;20463;-69
2022/03/11 08:55:57;;;;;;;17.80;10.30;;;3.10;47.20;;;;;;5116190;28;20810;-69
2022/03/11 08:58:24;;;;;;;15.70;10.53;;;3.10;47.10;;;;;;5115589;28;20476;-69
2022/03/11 09:00:52;;;;;;;16.67;10.10;;;3.20;48.60;;;;;;5115718;28;20759;-69
2022/03/11 09:03:19;;;;;;;15.77;10.30;;;3.40;47.50;;;;;;5115783;28;20733;-69
2022/03/11 09:05:45;;;;;;;19.53;9.90;;;3.50;46.60;;;;;;5115519;28;20452;-69
2022/03/11 09:08:12;;;;;;;16.20;9.43;;;3.60;46.40;;;;;;5115700;28;20791;-69
2022/03/11 09:10:39;;;;;;;13.73;8.77;;;3.60;45.50;;;;;;5115757;28;20783;-69
2022/03/11 09:13:06;;;;;;;14.17;10.20;;;3.70;44.90;;;;;;5115396;28;20463;-69
2022/03/11 09:15:33;;;;;;;16.03;10.30;;;3.70;44.70;;;;;;5115040;28;20458;-69
2022/03/11 09:18:01;;;;;;;15.43;9.67;;;3.80;44.40;;;;;;5114861;28;20483;-69
2022/03/11 09:20:29;;;;;;;16.00;10.00;;;3.80;43.80;;;;;;5114720;28;20456;-69
2022/03/11 09:22:55;;;;;;;14.73;10.17;;;3.90;43.90;;;;;;5115083;28;20488;-69
2022/03/11 09:25:22;;;;;;;17.10;10.40;;;4.00;44.00;;;;;;5115231;28;20803;-69
2022/03/11 09:27:49;;;;;;;18.60;9.83;;;4.10;43.70;;;;;;5115094;28;20463;-69
2022/03/11 09:30:16;;;;;;;16.03;10.20;;;4.10;43.30;;;;;;5114790;28;20452;-69
2022/03/11 09:32:43;;;;;;;18.17;10.20;;;4.20;42.70;;;;;;5115246;28;20460;-69
2022/03/11 09:35:13;;;;;;;18.07;10.90;;;4.30;42.60;;;;;;5114856;28;20457;-69
2022/03/11 09:37:39;;;;;;;16.40;10.20;;;4.50;43.60;;;;;;5115011;28;20472;-69
2022/03/11 09:40:08;;;;;;;17.60;10.63;;;4.60;42.40;;;;;;5115614;28;20874;-69
2022/03/11 09:42:35;;;;;;;17.30;11.30;;;4.60;42.10;;;;;;5115618;28;20460;-69
2022/03/11 09:45:02;;;;;;;14.10;9.53;;;4.70;41.80;;;;;;5115193;28;20463;-68
2022/03/11 09:47:28;;;;;;;14.73;9.83;;;4.70;41.40;;;;;;5115009;28;20471;-69
2022/03/11 09:49:56;;;;;;;14.13;10.13;;;4.80;41.60;;;;;;5114731;28;20574;-70
2022/03/11 09:52:24;;;;;;;11.80;8.83;;;4.90;41.30;;;;;;5114207;28;20491;-71
2022/03/11 09:54:51;;;;;;;12.30;8.70;;;5.00;40.50;;;;;;5115310;28;20763;-70
2022/03/11 09:57:22;;;;;;;14.20;10.20;;;5.00;39.50;;;;;;5114198;28;20472;-70
2022/03/11 09:59:49;;;;;;;15.10;9.43;;;5.10;38.60;;;;;;5114559;28;20540;-69
2022/03/11 10:02:17;;;;;;;20.57;11.33;;;5.20;38.60;;;;;;5114119;28;20906;-70
2022/03/11 10:04:49;;;;;;;11.50;8.20;;;5.30;37.70;;;;;;5114106;28;20926;-70
2022/03/11 10:07:25;;;;;;;15.47;9.30;;;5.40;37.50;;;;;;5114528;28;20448;-70
2022/03/11 10:09:52;;;;;;;13.20;9.33;;;5.40;37.30;;;;;;5114430;28;20467;-70
2022/03/11 10:12:26;;;;;;;15.50;9.20;;;5.50;37.50;;;;;;5114649;28;20453;-70
2022/03/11 10:15:01;;;;;;;14.40;9.40;;;5.60;37.70;;;;;;5114416;28;20456;-70
2022/03/11 10:17:39;;;;;;;14.33;9.20;;;5.70;36.00;;;;;;5114593;28;20467;-71
2022/03/11 10:20:09;;;;;;;12.80;7.97;;;5.70;34.60;;;;;;5114539;28;20510;-71
2022/03/11 10:22:40;;;;;;;10.97;7.43;;;5.70;33.40;;;;;;5114913;28;20457;-70
2022/03/11 10:25:09;;;;;;;11.20;8.50;;;5.70;32.90;;;;;;5115517;28;20451;-70
2022/03/11 10:27:54;;;;;;;19.17;8.50;;;5.70;32.60;;;;;;5115501;28;20449;-70
2022/03/11 10:30:22;;;;;;;11.37;8.00;;;5.70;33.00;;;;;;5114357;28;20440;-70
2022/03/11 10:32:50;;;;;;;13.43;8.97;;;5.70;33.10;;;;;;5114235;28;20452;-70
2022/03/11 10:35:18;;;;;;;12.13;7.80;;;5.80;33.00;;;;;;5114526;28;20529;-70
2022/03/11 10:37:59;;;;;;;14.50;8.33;;;5.80;32.60;;;;;;5116049;28;20490;-71
2022/03/11 10:40:26;;;;;;;13.60;8.50;;;5.90;31.80;;;;;;5116039;28;20521;-69
2022/03/11 10:43:12;;;;;;;13.23;8.20;;;5.90;32.20;;;;;;5115067;28;20477;-70
2022/03/11 10:45:52;;;;;;;11.60;7.70;;;6.00;32.00;;;;;;5114146;28;20437;-70
2022/03/11 10:48:40;;;;;;;14.57;8.10;;;6.00;31.10;;;;;;5114006;28;20443;-70
2022/03/11 10:51:11;;;;;;;15.00;8.33;;;6.00;31.40;;;;;;5113858;28;20973;-69
2022/03/11 10:53:40;;;;;;;14.63;8.83;;;6.10;31.80;;;;;;5113853;28;20432;-71
2022/03/11 10:56:09;;;;;;;11.73;7.53;;;6.20;31.40;;;;;;5113676;28;20525;-70
2022/03/11 10:58:36;;;;;;;11.53;7.90;;;6.20;30.90;;;;;;5113656;28;21003;-70
2022/03/11 11:01:04;;;;;;;25.03;8.00;;;6.30;30.20;;;;;;5116909;28;20460;-69
2022/03/11 11:03:32;;;;;;;12.87;7.40;;;6.30;30.00;;;;;;5118160;28;20498;-71
2022/03/11 11:05:59;;;;;;;15.00;8.17;;;6.40;29.60;;;;;;5117435;28;20459;-69
2022/03/11 11:08:27;;;;;;;14.17;8.93;;;6.40;29.60;;;;;;5117361;28;20919;-70
2022/03/11 11:10:56;;;;;;;11.80;8.30;;;6.50;29.80;;;;;;5117676;28;20930;-70
2022/03/11 11:13:23;;;;;;;12.43;7.47;;;6.60;29.50;;;;;;5117534;28;20456;-70
2022/03/11 11:15:53;;;;;;;13.00;8.97;;;6.70;29.30;;;;;;5117698;28;20456;-72
2022/03/11 11:18:24;;;;;;;17.23;8.57;;;6.70;28.60;;;;;;5117579;28;20601;-71
2022/03/11 11:20:53;;;;;;;11.57;8.03;;;6.80;28.30;;;;;;5117283;28;20444;-70
2022/03/11 11:23:23;;;;;;;12.43;8.33;;;6.80;28.20;;;;;;5117831;28;20460;-71
2022/03/11 11:25:51;;;;;;;11.27;7.97;;;6.90;28.10;;;;;;5117257;28;20452;-71
2022/03/11 11:28:22;;;;;;;12.03;8.63;;;7.10;28.70;;;;;;5117100;28;20955;-70
2022/03/11 11:30:53;;;;;;;23.10;8.30;;;7.10;28.00;;;;;;5117375;28;20528;-70
2022/03/11 11:33:21;;;;;;;12.40;6.83;;;7.20;28.00;;;;;;5116963;28;20518;-71
2022/03/11 11:35:48;;;;;;;12.53;7.90;;;7.30;28.10;;;;;;5117544;28;20879;-69
2022/03/11 11:38:33;;;;;;;10.00;7.10;;;7.40;27.70;;;;;;5117329;28;20472;-70
2022/03/11 11:41:01;;;;;;;15.43;7.80;;;7.50;27.90;;;;;;5116780;28;20517;-71
2022/03/11 11:43:30;;;;;;;11.53;8.07;;;7.50;27.20;;;;;;5116962;28;20794;-71
2022/03/11 11:46:11;;;;;;;11.00;7.50;;;7.60;27.40;;;;;;5117088;28;20467;-70
2022/03/11 11:49:02;;;;;;;14.47;7.53;;;7.70;27.20;;;;;;5116739;28;20428;-70
2022/03/11 11:51:55;;;;;;;13.77;7.13;;;8.00;27.20;;;;;;5116556;28;20488;-70
2022/03/11 11:54:34;;;;;;;13.90;7.50;;;8.20;27.30;;;;;;5116652;28;20456;-70
2022/03/11 11:57:01;;;;;;;10.80;7.10;;;8.40;26.30;;;;;;5117330;28;20436;-70
2022/03/11 11:59:35;;;;;;;11.30;8.10;;;8.50;26.30;;;;;;5117023;28;20788;-69
2022/03/11 12:02:04;;;;;;;13.20;7.80;;;8.60;26.10;;;;;;5117126;28;20440;-70
2022/03/11 12:04:34;;;;;;;10.30;7.30;;;8.80;26.30;;;;;;5117351;28;20521;-70
2022/03/11 12:07:03;;;;;;;11.60;7.67;;;9.10;26.50;;;;;;5117601;28;20543;-70
2022/03/11 12:09:48;;;;;;;11.23;7.00;;;9.80;26.50;;;;;;5117262;28;20449;-70
2022/03/11 12:12:48;;;;;;;10.37;6.80;;;10.90;25.00;;;;;;5116257;28;20539;-71
2022/03/11 12:15:18;;;;;;;11.60;6.70;;;12.30;23.70;;;;;;5100228;28;20606;-70
2022/03/11 12:17:47;;;;;;;11.20;7.47;;;13.10;22.50;;;;;;5118542;28;20459;-70
2022/03/11 12:20:35;;;;;;;8.23;6.50;;;13.80;21.90;;;;;;5117944;28;20903;-71
2022/03/11 12:23:05;;;;;;;12.20;6.80;;;14.70;20.80;;;;;;5117538;28;20456;-69
2022/03/11 12:25:33;;;;;;;9.87;6.97;;;15.60;19.90;;;;;;5116761;28;20623;-70
2022/03/11 12:28:06;;;;;;;9.80;6.27;;;16.10;19.70;;;;;;5116644;28;20458;-70
2022/03/11 12:30:35;;;;;;;15.97;6.67;;;16.70;18.40;;;;;;5116303;28;20441;-70
2022/03/11 12:33:04;;;;;;;12.00;6.20;;;16.90;17.70;;;;;;5116466;28;20452;-71
2022/03/11 12:35:31;;;;;;;31.00;10.77;;;16.90;17.30;;;;;;5116409;28;20736;-70
2022/03/11 12:37:58;;;;;;;23.13;6.77;;;16.70;17.20;;;;;;5116456;28;20487;-70
2022/03/11 12:40:29;;;;;;;10.97;6.43;;;17.10;17.00;;;;;;5116058;28;20892;-70
2022/03/11 12:43:00;;;;;;;14.73;6.77;;;17.20;16.10;;;;;;5116543;28;20448;-70
2022/03/11 12:45:36;;;;;;;13.63;6.70;;;17.20;15.60;;;;;;5115620;28;20464;-70
2022/03/11 12:48:04;;;;;;;13.33;6.17;;;17.40;15.60;;;;;;5115625;28;20437;-71